Weather observations for the past three days for
Mackall U. S. Army Airfield
Imperial (Metric)
Date Time (edt) Wind (mph) Vis. (mi.) Weather Sky Cond. Temperature (ºF) Relative Humidity Wind Chill (°F) Heat Index (°F) Pressure Precipitation (in)
Air Dwpt 6 hour altimeter (in) sea level (mb) 1 hr 3 hr 6 hr
Max. Min.
05 06:55 W 5 10.00 Fair CLR 77 74.8 93% 78 29.87 1011.3
05 05:55 W 7 10.00 Fair CLR 77.2 75 93% 78 29.86 1010.9
05 04:55 SW 3 10.00 Fair CLR 76.1 74.8 96% 76 29.87 1011.2
05 03:55 Calm 10.00 Fair CLR 77 75 94% 78 29.89 1011.9
05 02:55 Calm 10.00 Fair CLR 77.9 75.4 92% 80 29.9 1012.2
05 01:55 S 3 10.00 A Few Clouds FEW060 79 75.7 88.3 78.6 90% 83 29.91 1012.6
05 00:55 SE 8 10.00 A Few Clouds FEW060 81 75.2 83% 87 29.93 1013.3
04 23:55 SW 9 10.00 Fair CLR 81.9 74.7 79% 88 29.93 1013.3
04 22:55 SW 8 10.00 Mostly Cloudy BKN140 83.8 73.8 72% 91 29.93 1013.3
04 21:55 SW 6 10.00 Fair CLR 81.1 75.7 84% 88 29.93 1013.3
04 20:55 SW 7 10.00 Fair CLR 82.6 75.7 80% 90 29.9 1012.3
04 19:55 Calm 10.00 Fair CLR 88.2 74.8 96.8 87.6 65% 98 29.92 1013.0
04 18:55 W 3 10.00 Fair CLR 92.7 74.1 55% 103 29.9 1012.3
04 17:55 SW 7 10.00 Fair CLR 94.8 73.2 50% 105 29.9 1012.2
04 16:55 SW 9 10.00 Fair CLR 95.7 73.9 50% 107 29.9 1012.2
04 15:55 SW 8 10.00 A Few Clouds FEW050 95.9 73.6 49% 106 29.93 1013.3
04 14:55 SW 5 10.00 Mostly Cloudy BKN047 95.5 73.8 49% 106 29.95 1013.9
04 13:55 Calm 10.00 Fair CLR 92.1 73.6 93.9 77.2 55% 102 29.98 1015.0
04 12:55 SW 8 10.00 Fair CLR 92.7 74.5 56% 103 29.99 1015.3
04 11:55 W 5 10.00 Fair CLR 89.8 73.9 60% 99 30.01 1016.0
04 10:55 W 5 10.00 Fair CLR 87.6 74.3 65% 97 30.02 1016.4
04 09:55 W 9 10.00 Fair CLR 84.4 74.7 73% 92 30.01 1016.0
04 08:55 W 8 10.00 Fair CLR 81.3 75.9 84% 88 30.01 1016.0
04 07:55 Calm 10.00 Fair CLR 77 75.7 77.4 73.6 96% 78 30.02 1016.4
04 06:55 Calm 10.00 Fair CLR 73.8 72.9 97% 30 1015.7
04 05:55 Calm 10.00 Fair CLR 75.2 74.3 97% 73 29.99 1015.3
04 04:55 Calm 10.00 Fair CLR 75.7 74.5 96% 75 29.99 1015.3
04 03:55 Calm 10.00 Fair CLR 75.9 74.3 95% 75 29.98 1015.0
04 02:55 Calm 10.00 Fair CLR 76.8 74.3 92% 78 29.99 1015.3
04 01:55 SW 5 10.00 Fair CLR 77.4 74.5 87.8 77.4 91% 79 30.01 1016.0
04 00:55 SW 5 10.00 Fair CLR 79.2 73.8 84% 83 30.02 1016.3
03 23:55 SW 7 10.00 Fair CLR 80.4 73.2 79% 85 30.02 1016.3
03 22:55 SW 7 10.00 Fair CLR 82.4 72.9 73% 88 30.02 1016.3
03 21:55 SW 7 10.00 Fair CLR 83.7 72.7 70% 90 30.01 1016.0
03 20:55 SW 8 10.00 Fair CLR 85.8 74.3 69% 94 29.99 1015.3
03 19:55 S 7 10.00 Fair CLR 88 74.7 98.4 88 65% 97 29.96 1014.3
03 18:55 S 9 10.00 Fair CLR 93.4 73.6 53% 103 29.96 1014.3
03 17:55 SW 5 10.00 A Few Clouds FEW055 95.4 71.8 47% 104 29.96 1014.3
03 16:55 S 5 10.00 Fair CLR 96.1 71.8 46% 105 29.96 1014.3
03 15:55 S 9 10.00 A Few Clouds FEW150 97.2 73.4 46% 108 29.97 1014.6
03 14:55 S 5 10.00 Fair CLR 96.6 74.3 49% 108 29.99 1015.3
03 13:55 NE 3 10.00 Fair CLR 96.6 71.6 97.7 77.2 44% 105 30.01 1016.0
03 12:55 Calm 10.00 Fair CLR 94.6 73.6 51% 105 30.02 1016.3
03 11:55 N 6 10.00 Fair CLR 93.2 75.6 57% 105 30.04 1017.0
03 10:55 NW 3 10.00 Fair CLR 89.8 74.5 61% 100 30.04 1017.0
03 09:55 NW 6 10.00 Fair CLR 87.4 73.8 64% 96 30.03 1016.7
03 08:55 NW 3 10.00 Fair CLR 84.6 74.1 71% 92 30.04 1017.0
03 07:55 Calm 10.00 Fair CLR 77 75 79.3 74.7 94% 78 30.05 1017.4
03 06:55 Calm 10.00 Fair CLR 74.8 73.6 96% 30.03 1016.7
03 05:55 Calm 10.00 Fair CLR 76.1 73.9 93% 76 30.02 1016.3
03 04:55 Calm 10.00 Fair CLR 76.8 74.8 94% 78 30.01 1016.0
03 03:55 Calm 10.00 Fair CLR 76.8 74.7 93% 78 30.01 1016.0
03 02:55 Calm 10.00 Fair CLR 78.4 75.2 90% 82 30 1015.6
03 01:55 S 3 10.00 Fair CLR 79.5 75.6 87.8 79.5 88% 84 30 1015.6
03 00:55 SW 3 10.00 Fair CLR 81.5 75.7 83% 88 30.01 1016.0
02 23:55 SW 7 10.00 Fair CLR 83.3 75.6 78% 91 30 1015.6
02 22:55 SW 7 10.00 Fair CLR 81.3 75.9 84% 88 30 1015.7
02 21:55 Calm 10.00 Fair CLR 82.9 78.6 87% 93 30.03 1016.7
02 20:55 Calm 10.00 A Few Clouds FEW065 85.5 77 76% 96 30 1015.7
02 19:55 Calm 10.00 Fair CLR 88 78.1 99.3 88 73% 102 29.99 1015.4
02 18:55 Calm 10.00 Partly Cloudy SCT065 92.7 76.1 59% 105 29.98 1015.0
02 17:55 S 5 10.00 Fair CLR 97.2 71.4 43% 106 29.98 1015.0
02 16:55 SE 5 10.00 Mostly Cloudy BKN060 98.4 70.5 41% 106 29.99 1015.3
02 15:55 Calm 10.00 A Few Clouds FEW065 96.1 70.5 44% 103 30 1015.6
02 14:55 NE 6 10.00 Fair CLR 96.8 71.8 45% 105 30.01 1016.0
02 13:55 Calm 10.00 A Few Clouds FEW100 97 72 97.3 75.9 45% 106 30.03 1016.7
02 12:55 Calm 10.00 Fair CLR 94.6 71.8 48% 103 30.04 1017.0
02 11:55 N 3 10.00 Fair CLR 92.1 74.1 56% 102 30.05 1017.4
02 10:55 N 3 10.00 Fair CLR 88 75.6 67% 98 30.05 1017.4
02 09:55 N 3 10.00 Fair CLR 84.4 74.7 73% 92 30.05 1017.4
02 08:55 NW 3 10.00 Fair CLR 81 75.2 83% 87 30.05 1017.4
02 07:55 Calm 9.00 NULL NULL 75.7 74.1 77.7 73 95% 75 30.06 1017.8
Date Time (edt) Wind (mph) Vis. (mi.) Weather Sky Cond. Air Dwpt Max. Min. Relative Humidity Wind Chill (°F) Heat Index (°F) altimeter (in) sea level (mb) 1 hr 3 hr 6 hr
6 hour
Temperature (ºF) Pressure Precipitation (in)